createdAt,value
2022-11-19T00:01:14.415Z,99491.56
2022-11-19T00:02:51.898Z,99491.44
2022-11-19T00:05:17.028Z,99493.94
2022-11-19T00:07:08.175Z,99497.47
2022-11-19T00:11:09.464Z,99496.03
2022-11-19T00:12:54.231Z,99502.72
2022-11-19T00:14:35.823Z,99505.03
2022-11-19T00:16:34.438Z,99505.66
2022-11-19T00:18:19.356Z,99509.47
2022-11-19T00:20:17.259Z,99513.44
2022-11-19T00:22:11.688Z,99516.56
2022-11-19T00:27:18.100Z,99515.38
2022-11-19T00:28:41.803Z,99517.66
2022-11-19T00:30:19.942Z,99519.09
2022-11-19T00:32:25.673Z,99518.72
2022-11-19T00:33:59.580Z,99516.56
2022-11-19T00:35:44.619Z,99526.78
2022-11-19T00:37:24.792Z,99530.84
2022-11-19T00:39:12.996Z,99527.13
2022-11-19T00:42:30.536Z,99533.00
2022-11-19T00:43:14.153Z,99529.06
2022-11-19T00:47:06.695Z,99534.66
2022-11-19T00:48:31.807Z,99535.41
2022-11-19T00:50:01.646Z,99527.34
2022-11-19T00:51:39.725Z,99528.91
2022-11-19T00:53:03.220Z,99536.59
2022-11-19T00:54:33.690Z,99528.41
2022-11-19T00:56:03.764Z,99538.72
2022-11-19T00:57:27.992Z,99538.50
2022-11-19T00:58:58.105Z,99540.16
2022-11-19T01:00:23.459Z,99526.84
2022-11-19T01:01:55.955Z,99523.13
2022-11-19T01:03:29.530Z,99526.59
2022-11-19T01:05:07.040Z,99523.84
2022-11-19T01:06:36.525Z,99531.75
2022-11-19T01:08:05.504Z,99535.97
2022-11-19T01:09:30.994Z,99534.16
2022-11-19T01:10:54.913Z,99534.16
2022-11-19T01:12:24.505Z,99535.97
2022-11-19T01:13:59.586Z,99530.69
2022-11-19T01:15:26.031Z,99528.97
2022-11-19T01:16:54.835Z,99531.50
2022-11-19T01:18:18.088Z,99529.69
2022-11-19T01:19:56.582Z,99536.66
2022-11-19T01:21:25.770Z,99522.59
2022-11-19T01:22:51.878Z,99520.09
2022-11-19T01:24:14.723Z,99520.09
2022-11-19T01:25:39.806Z,99522.84
2022-11-19T01:27:02.207Z,99522.75
2022-11-19T01:28:23.278Z,99527.16
2022-11-19T01:29:47.834Z,99528.03
2022-11-19T01:31:12.552Z,99530.69
2022-11-19T01:32:39.532Z,99535.97
2022-11-19T01:34:02.194Z,99532.44
2022-11-19T01:35:28.819Z,99538.59
2022-11-19T01:36:51.332Z,99537.75
2022-11-19T01:38:15.135Z,99543.91
2022-11-19T01:39:37.315Z,99539.56
2022-11-19T01:40:58.560Z,99548.56
2022-11-19T01:42:40.914Z,99546.91
2022-11-19T01:44:05.188Z,99543.44
2022-11-19T01:45:33.436Z,99544.25
2022-11-19T01:46:58.222Z,99548.72
2022-11-19T01:48:25.600Z,99545.94
2022-11-19T01:49:46.603Z,99545.94
2022-11-19T01:51:16.071Z,99543.44
2022-11-19T01:52:36.867Z,99555.78
2022-11-19T01:54:01.848Z,99551.47
2022-11-19T01:55:24.531Z,99554.09
2022-11-19T01:56:46.872Z,99552.41
2022-11-19T01:58:08.031Z,99554.47
2022-11-19T01:59:32.640Z,99555.31
2022-11-19T02:00:53.593Z,99558.94
2022-11-19T02:02:15.532Z,99559.03
2022-11-19T02:03:42.215Z,99554.59
2022-11-19T02:05:05.643Z,99559.75
2022-11-19T02:06:33.104Z,99560.59
2022-11-19T02:07:57.086Z,99556.88
2022-11-19T02:09:19.869Z,99563.69
2022-11-19T02:10:52.968Z,99556.63
2022-11-19T02:12:26.149Z,99560.13
2022-11-19T02:14:03.081Z,99561.94
2022-11-19T02:15:39.832Z,99572.59
2022-11-19T02:17:11.934Z,99570.91
2022-11-19T02:18:44.031Z,99579.56
2022-11-19T02:20:32.092Z,99573.34
2022-11-19T02:22:13.413Z,99583.75
2022-11-19T02:24:02.727Z,99581.00
2022-11-19T02:25:39.841Z,99580.75
2022-11-19T02:27:34.208Z,99579.66
2022-11-19T02:29:11.111Z,99583.88
2022-11-19T02:30:38.873Z,99580.28
2022-11-19T02:32:05.144Z,99579.19
2022-11-19T02:33:37.465Z,99578.09
2022-11-19T02:35:02.270Z,99582.31
2022-11-19T02:36:28.245Z,99583.03
2022-11-19T02:37:58.906Z,99585.53
2022-11-19T02:39:33.755Z,99592.38
2022-11-19T02:40:59.767Z,99583.50
2022-11-19T02:42:28.550Z,99591.28
2022-11-19T02:44:21.287Z,99585.06
2022-11-19T02:45:49.253Z,99584.06
2022-11-19T02:47:20.416Z,99586.72
2022-11-19T02:48:48.299Z,99599.09
2022-11-19T02:50:12.828Z,99588.53
2022-11-19T02:51:39.238Z,99592.13
2022-11-19T02:53:08.144Z,99592.00
2022-11-19T02:54:36.596Z,99597.28
2022-11-19T02:56:18.189Z,99599.81
2022-11-19T02:57:42.936Z,99598.84
2022-11-19T02:59:26.556Z,99595.47
2022-11-19T03:01:10.591Z,99600.78
2022-11-19T03:02:55.838Z,99606.19
2022-11-19T03:04:33.125Z,99595.75
2022-11-19T03:06:15.699Z,99601.13
2022-11-19T03:07:45.310Z,99596.81
2022-11-19T03:09:09.327Z,99601.41
2022-11-19T03:10:41.392Z,99597.09
2022-11-19T03:12:11.853Z,99600.09
2022-11-19T03:14:00.700Z,99596.72
2022-11-19T03:15:56.324Z,99608.28
2022-11-19T03:17:26.975Z,99606.56
2022-11-19T03:18:56.006Z,99609.22
2022-11-19T03:20:33.206Z,99613.78
2022-11-19T03:22:01.157Z,99610.31
2022-11-19T03:23:36.738Z,99610.44
2022-11-19T03:25:15.075Z,99605.28
2022-11-19T03:26:43.602Z,99603.47
2022-11-19T03:28:21.175Z,99615.00
2022-11-19T03:30:17.175Z,99604.56
2022-11-19T03:32:21.302Z,99610.66
2022-11-19T03:34:15.330Z,99597.44
2022-11-19T03:35:48.309Z,99614.19
2022-11-19T03:37:19.936Z,99612.47
2022-11-19T03:38:44.993Z,99614.28
2022-11-19T03:40:16.237Z,99620.41
2022-11-19T03:41:40.847Z,99616.09
2022-11-19T03:43:09.273Z,99625.84
2022-11-19T03:44:40.084Z,99619.56
2022-11-19T03:46:04.753Z,99624.03
2022-11-19T03:47:35.481Z,99622.09
2022-11-19T03:49:01.493Z,99622.22
2022-11-19T03:50:30.145Z,99621.38
2022-11-19T03:51:57.916Z,99624.03
2022-11-19T03:53:22.112Z,99622.34
2022-11-19T03:54:43.875Z,99623.31
2022-11-19T03:56:10.727Z,99626.06
2022-11-19T03:57:34.460Z,99626.19
2022-11-19T03:58:59.123Z,99617.53
2022-11-19T04:00:21.678Z,99626.56
2022-11-19T04:01:45.153Z,99626.81
2022-11-19T04:03:15.245Z,99625.25
2022-11-19T04:04:38.889Z,99628.09
2022-11-19T04:06:01.558Z,99625.72
2022-11-19T04:07:25.300Z,99630.28
2022-11-19T04:08:47.672Z,99625.22
2022-11-19T04:10:10.372Z,99635.22
2022-11-19T04:11:31.461Z,99632.69
2022-11-19T04:12:53.764Z,99634.72
2022-11-19T04:14:14.495Z,99632.44
2022-11-19T04:15:36.585Z,99629.19
2022-11-19T04:16:57.800Z,99640.84
2022-11-19T04:18:20.346Z,99636.63
2022-11-19T04:19:44.649Z,99634.34
2022-11-19T04:21:05.780Z,99637.94
2022-11-19T04:22:28.427Z,99640.84
2022-11-19T04:23:49.648Z,99638.41
2022-11-19T04:25:12.064Z,99643.00
2022-11-19T04:26:33.097Z,99640.56
2022-11-19T04:27:59.263Z,99640.69
2022-11-19T04:29:25.426Z,99646.09
2022-11-19T04:30:47.804Z,99645.47
2022-11-19T04:32:09.136Z,99647.41
2022-11-19T04:33:31.691Z,99647.50
2022-11-19T04:34:55.732Z,99651.22
2022-11-19T04:36:17.155Z,99651.34
2022-11-19T04:37:39.500Z,99648.09
2022-11-19T04:39:01.116Z,99660.44
2022-11-19T04:40:23.287Z,99652.63
2022-11-19T04:41:45.460Z,99665.13
2022-11-19T04:43:06.644Z,99659.94
2022-11-19T04:44:29.495Z,99657.41
2022-11-19T04:45:50.632Z,99666.31
2022-11-19T04:47:13.094Z,99664.59
2022-11-19T04:48:34.533Z,99660.28
2022-11-19T04:49:58.522Z,99670.03
2022-11-19T04:51:20.121Z,99665.69
2022-11-19T04:52:42.559Z,99671.94
2022-11-19T04:54:04.185Z,99673.72
2022-11-19T04:55:26.473Z,99672.91
2022-11-19T04:56:48.861Z,99671.19
2022-11-19T04:58:10.812Z,99665.91
2022-11-19T04:59:33.241Z,99664.09
2022-11-19T05:00:54.013Z,99672.16
2022-11-19T05:02:16.090Z,99659.91
2022-11-19T05:03:38.167Z,99665.31
2022-11-19T05:05:00.676Z,99663.63
2022-11-19T05:06:22.656Z,99663.75
2022-11-19T05:07:43.806Z,99663.97
2022-11-19T05:09:08.057Z,99663.25
2022-11-19T05:10:29.280Z,99666.00
2022-11-19T05:11:51.845Z,99663.44
2022-11-19T05:13:13.573Z,99670.53
2022-11-19T05:14:38.512Z,99668.88
2022-11-19T05:16:01.027Z,99668.97
2022-11-19T05:17:22.312Z,99676.16
2022-11-19T05:18:44.598Z,99677.13
2022-11-19T05:20:09.397Z,99686.00
2022-11-19T05:21:31.791Z,99676.38
2022-11-19T05:22:53.032Z,99683.47
2022-11-19T05:24:15.762Z,99680.09
2022-11-19T05:25:36.925Z,99683.56
2022-11-19T05:26:59.361Z,99672.31
2022-11-19T05:28:37.510Z,99675.88
2022-11-19T05:30:01.066Z,99669.75
2022-11-19T05:31:23.625Z,99678.63
2022-11-19T05:32:45.159Z,99680.56
2022-11-19T05:34:07.524Z,99675.28
2022-11-19T05:35:31.179Z,99683.28
2022-11-19T05:36:52.497Z,99677.19
2022-11-19T05:38:14.967Z,99680.75
2022-11-19T05:39:35.948Z,99682.56
2022-11-19T05:40:58.175Z,99684.47
2022-11-19T05:42:18.757Z,99686.38
2022-11-19T05:43:40.768Z,99684.69
2022-11-19T05:45:02.551Z,99680.47
2022-11-19T05:46:24.868Z,99690.19
2022-11-19T05:47:48.733Z,99686.81
2022-11-19T05:49:12.658Z,99691.25
2022-11-19T05:50:36.789Z,99696.63
2022-11-19T05:51:57.874Z,99693.16
2022-11-19T05:53:20.145Z,99690.63
2022-11-19T05:54:41.923Z,99694.31
2022-11-19T05:56:04.663Z,99693.50
2022-11-19T05:57:27.757Z,99699.59
2022-11-19T05:58:51.279Z,99705.00
2022-11-19T06:00:16.838Z,99715.56
2022-11-19T06:01:39.559Z,99713.00
2022-11-19T06:03:04.204Z,99715.66
2022-11-19T06:04:28.203Z,99712.19
2022-11-19T06:05:58.244Z,99715.78
2022-11-19T06:07:19.741Z,99722.81
2022-11-19T06:08:45.713Z,99723.78
2022-11-19T06:10:09.224Z,99731.69
2022-11-19T06:11:51.672Z,99723.88
2022-11-19T06:13:14.004Z,99737.06
2022-11-19T06:14:37.555Z,99738.88
2022-11-19T06:16:00.038Z,99743.31
2022-11-19T06:17:22.092Z,99739.84
2022-11-19T06:18:44.256Z,99742.34
2022-11-19T06:20:09.004Z,99738.13
2022-11-19T06:21:33.433Z,99738.97
2022-11-19T06:22:55.737Z,99742.47
2022-11-19T06:24:17.559Z,99745.09
2022-11-19T06:25:39.783Z,99744.25
2022-11-19T06:27:00.726Z,99738.13
2022-11-19T06:28:23.166Z,99742.47
2022-11-19T06:29:45.545Z,99749.50
2022-11-19T06:31:11.352Z,99738.88
2022-11-19T06:32:33.689Z,99745.94
2022-11-19T06:33:56.257Z,99740.75
2022-11-19T06:35:43.435Z,99734.56
2022-11-19T06:37:20.028Z,99745.94
2022-11-19T06:38:43.862Z,99744.13
2022-11-19T06:40:10.431Z,99746.69
2022-11-19T06:41:33.494Z,99739.69
2022-11-19T06:42:55.969Z,99736.88
2022-11-19T06:44:20.660Z,99741.19
2022-11-19T06:45:50.265Z,99748.13
2022-11-19T06:47:14.479Z,99753.31
2022-11-19T06:48:40.448Z,99756.56
2022-11-19T06:50:05.437Z,99758.25
2022-11-19T06:51:32.722Z,99752.03
2022-11-19T06:52:56.960Z,99761.41
2022-11-19T06:54:18.389Z,99762.16
2022-11-19T06:55:41.119Z,99757.59
2022-11-19T06:57:09.080Z,99759.19
2022-11-19T06:58:32.484Z,99766.88
2022-11-19T07:00:12.887Z,99753.56
2022-11-19T07:01:41.193Z,99763.03
2022-11-19T07:03:06.860Z,99760.19
2022-11-19T07:04:38.097Z,99761.78
2022-11-19T07:06:06.572Z,99756.28
2022-11-19T07:07:32.334Z,99757.84
2022-11-19T07:08:57.241Z,99763.72
2022-11-19T07:10:30.361Z,99760.75
2022-11-19T07:12:09.700Z,99766.78
2022-11-19T07:14:16.599Z,99769.09
2022-11-19T07:15:49.334Z,99766.13
2022-11-19T07:17:28.299Z,99772.00
2022-11-19T07:19:23.882Z,99776.94
2022-11-19T07:21:03.257Z,99774.94
2022-11-19T07:22:26.183Z,99779.03
2022-11-19T07:23:50.631Z,99774.47
2022-11-19T07:25:17.850Z,99775.94
2022-11-19T07:26:40.435Z,99773.06
2022-11-19T07:28:12.948Z,99774.63
2022-11-19T07:29:49.551Z,99784.03
2022-11-19T07:31:20.348Z,99783.78
2022-11-19T07:33:19.491Z,99780.91
2022-11-19T07:34:46.491Z,99777.09
2022-11-19T07:36:34.698Z,99777.69
2022-11-19T07:38:04.295Z,99776.63
2022-11-19T07:39:29.819Z,99773.75
2022-11-19T07:40:56.363Z,99769.09
2022-11-19T07:42:35.942Z,99769.69
2022-11-19T07:44:02.521Z,99779.19
2022-11-19T07:45:36.237Z,99772.81
2022-11-19T07:46:58.633Z,99772.72
2022-11-19T07:48:25.297Z,99789.31
2022-11-19T07:49:51.235Z,99776.69
2022-11-19T07:51:21.450Z,99774.88
2022-11-19T07:52:46.212Z,99779.13
2022-11-19T07:54:22.047Z,99773.69
2022-11-19T07:55:51.444Z,99777.06
2022-11-19T07:57:15.235Z,99780.44
2022-11-19T07:58:37.564Z,99782.84
2022-11-19T08:00:00.029Z,99782.59
2022-11-19T08:01:24.717Z,99783.34
2022-11-19T08:02:50.781Z,99778.06
2022-11-19T08:04:14.420Z,99781.44
2022-11-19T08:05:40.663Z,99784.91
2022-11-19T08:07:45.588Z,99779.50
2022-11-19T08:09:49.402Z,99779.03
2022-11-19T08:11:49.057Z,99764.81
2022-11-19T08:13:19.300Z,99777.91
2022-11-19T08:14:41.631Z,99776.19
2022-11-19T08:16:04.919Z,99772.50
2022-11-19T08:17:47.863Z,99777.97
2022-11-19T08:19:11.717Z,99771.63
2022-11-19T08:20:38.858Z,99770.97
2022-11-19T08:22:09.742Z,99770.06
2022-11-19T08:23:39.473Z,99769.13
2022-11-19T08:25:21.976Z,99769.97
2022-11-19T08:26:55.562Z,99761.22
2022-11-19T08:28:50.055Z,99762.69
2022-11-19T08:30:27.296Z,99763.09
2022-11-19T08:32:00.057Z,99762.00
2022-11-19T08:33:24.796Z,99758.31
2022-11-19T08:34:55.811Z,99755.00
2022-11-19T08:36:24.312Z,99751.13
2022-11-19T08:37:50.995Z,99745.31
2022-11-19T08:39:13.610Z,99740.06
2022-11-19T08:40:39.208Z,99732.66
2022-11-19T08:42:18.384Z,99743.97
2022-11-19T08:43:41.276Z,99737.63
2022-11-19T08:45:08.702Z,99741.50
2022-11-19T08:46:30.769Z,99740.53
2022-11-19T08:47:53.025Z,99740.28
2022-11-19T08:49:15.080Z,99741.22
2022-11-19T08:50:37.283Z,99742.50
2022-11-19T08:52:00.499Z,99745.03
2022-11-19T08:53:22.700Z,99747.50
2022-11-19T08:54:45.127Z,99755.03
2022-11-19T08:56:14.000Z,99751.66
2022-11-19T08:57:40.077Z,99746.41
2022-11-19T08:59:06.239Z,99759.28
2022-11-19T09:00:43.225Z,99755.25
2022-11-19T09:02:08.247Z,99756.44
2022-11-19T09:03:31.074Z,99761.56
2022-11-19T09:04:56.192Z,99756.50
2022-11-19T09:06:19.889Z,99765.34
2022-11-19T09:07:42.035Z,99765.50
2022-11-19T09:09:04.534Z,99764.25
2022-11-19T09:10:27.308Z,99774.41
2022-11-19T09:11:56.186Z,99768.88
2022-11-19T09:13:21.545Z,99767.72
2022-11-19T09:14:45.523Z,99765.28
2022-11-19T09:16:08.911Z,99772.44
2022-11-19T09:17:31.148Z,99773.16
2022-11-19T09:18:53.547Z,99773.06
2022-11-19T09:20:15.957Z,99775.91
2022-11-19T09:21:38.475Z,99771.91
2022-11-19T09:23:01.697Z,99773.59
2022-11-19T09:24:24.042Z,99777.84
2022-11-19T09:25:46.250Z,99773.66
2022-11-19T09:27:08.561Z,99776.28
2022-11-19T09:28:31.967Z,99769.50
2022-11-19T09:29:55.683Z,99769.34
2022-11-19T09:31:21.494Z,99774.38
2022-11-19T09:32:51.306Z,99772.47
2022-11-19T09:34:15.301Z,99774.75
2022-11-19T09:35:38.016Z,99775.34
2022-11-19T09:37:00.139Z,99773.03
2022-11-19T09:38:22.208Z,99779.16
2022-11-19T09:39:44.488Z,99772.78
2022-11-19T09:41:39.843Z,99772.03
2022-11-19T09:43:13.971Z,99777.78
2022-11-19T09:44:52.048Z,99775.84
2022-11-19T09:46:24.105Z,99774.94
2022-11-19T09:48:08.299Z,99777.91
2022-11-19T09:49:39.992Z,99777.97
2022-11-19T09:51:05.942Z,99779.22
2022-11-19T09:52:35.114Z,99776.25
2022-11-19T09:54:02.352Z,99780.91
2022-11-19T09:55:30.827Z,99787.63
2022-11-19T09:56:59.256Z,99787.97
2022-11-19T09:58:28.856Z,99785.44
2022-11-19T09:59:57.753Z,99788.25
2022-11-19T10:01:24.116Z,99785.50
2022-11-19T10:02:46.302Z,99784.56
2022-11-19T10:04:08.513Z,99784.47
2022-11-19T10:05:40.026Z,99784.50
2022-11-19T10:07:13.430Z,99787.31
2022-11-19T10:08:49.815Z,99787.13
2022-11-19T10:10:29.202Z,99784.06
2022-11-19T10:12:03.295Z,99785.88
2022-11-19T10:13:51.356Z,99790.34
2022-11-19T10:15:23.682Z,99791.94
2022-11-19T10:16:57.856Z,99785.19
2022-11-19T10:18:32.533Z,99786.81
2022-11-19T10:20:12.959Z,99786.88
2022-11-19T10:21:41.228Z,99779.91
2022-11-19T10:23:18.473Z,99784.16
2022-11-19T10:24:49.298Z,99782.34
2022-11-19T10:26:21.187Z,99783.19
2022-11-19T10:27:47.609Z,99789.22
2022-11-19T10:29:27.286Z,99787.38
2022-11-19T10:30:57.214Z,99784.38
2022-11-19T10:32:34.236Z,99787.03
2022-11-19T10:34:12.341Z,99783.34
2022-11-19T10:35:45.558Z,99784.25
2022-11-19T10:37:17.016Z,99787.56
2022-11-19T10:38:57.488Z,99784.81
2022-11-19T10:40:26.238Z,99783.59
2022-11-19T10:41:53.551Z,99785.72
2022-11-19T10:43:26.575Z,99785.91
2022-11-19T10:44:56.982Z,99784.22
2022-11-19T10:46:40.569Z,99778.06
2022-11-19T10:50:28.118Z,99772.34
2022-11-19T10:52:02.554Z,99778.34
2022-11-19T10:53:32.453Z,99773.47
2022-11-19T10:55:22.934Z,99771.09
2022-11-19T10:56:46.166Z,99772.50
2022-11-19T10:58:24.848Z,99774.56
2022-11-19T10:59:52.482Z,99772.31
2022-11-19T11:01:27.242Z,99772.78
2022-11-19T11:02:54.824Z,99770.25
2022-11-19T11:04:29.642Z,99774.00
2022-11-19T11:06:05.733Z,99767.16
2022-11-19T11:07:56.056Z,99766.56
2022-11-19T11:09:40.048Z,99762.25
2022-11-19T11:11:04.614Z,99765.03
2022-11-19T11:12:50.829Z,99754.56
2022-11-19T11:14:41.895Z,99768.13
2022-11-19T11:16:47.378Z,99762.22
2022-11-19T11:18:47.771Z,99757.91
2022-11-19T11:20:49.611Z,99763.34
2022-11-19T11:22:15.327Z,99758.03
2022-11-19T11:23:52.670Z,99750.78
2022-11-19T11:25:46.542Z,99747.84
2022-11-19T11:27:28.258Z,99745.75
2022-11-19T11:29:00.821Z,99750.22
2022-11-19T11:30:24.053Z,99750.22
2022-11-19T11:31:53.157Z,99744.06
2022-11-19T11:33:45.254Z,99747.72
2022-11-19T11:35:37.871Z,99744.22
2022-11-19T11:37:17.323Z,99742.41
2022-11-19T11:39:00.329Z,99740.69
2022-11-19T11:40:41.283Z,99748.66
2022-11-19T11:42:17.992Z,99741.56
2022-11-19T11:45:39.547Z,99740.44
2022-11-19T11:47:05.246Z,99736.25
2022-11-19T11:48:46.577Z,99738.47
2022-11-19T11:50:50.745Z,99737.75
2022-11-19T11:52:29.973Z,99738.03
2022-11-19T11:54:24.105Z,99739.72
2022-11-19T11:56:12.193Z,99739.00
2022-11-19T11:57:38.448Z,99746.97
2022-11-19T11:59:42.866Z,99746.25
2022-11-19T12:01:24.558Z,99745.41
2022-11-19T12:03:04.916Z,99735.91
2022-11-19T12:04:30.175Z,99734.38
2022-11-19T12:06:12.614Z,99736.19
2022-11-19T12:07:56.415Z,99737.31
2022-11-19T12:09:29.820Z,99739.25
2022-11-19T12:10:59.012Z,99734.94
2022-11-19T12:12:31.849Z,99744.00
2022-11-19T12:13:59.999Z,99736.16
2022-11-19T12:15:31.280Z,99745.94
2022-11-19T12:17:14.560Z,99744.25
2022-11-19T12:18:47.585Z,99746.91
2022-11-19T12:20:25.263Z,99741.59
2022-11-19T12:24:38.384Z,99744.81
2022-11-19T12:26:13.185Z,99739.06
2022-11-19T12:27:42.944Z,99745.59
2022-11-19T12:29:21.109Z,99741.81
2022-11-19T12:30:55.970Z,99737.50
2022-11-19T12:32:31.439Z,99736.06
2022-11-19T12:34:10.932Z,99739.00
2022-11-19T12:35:51.245Z,99742.75
2022-11-19T12:37:29.026Z,99741.06
2022-11-19T12:39:03.263Z,99739.38
2022-11-19T12:40:40.876Z,99747.22
2022-11-19T12:42:27.759Z,99744.41
2022-11-19T12:43:58.804Z,99740.09
2022-11-19T12:45:36.415Z,99737.44
2022-11-19T12:47:10.667Z,99737.56
2022-11-19T12:48:49.987Z,99742.16
2022-11-19T12:50:25.856Z,99733.63
2022-11-19T12:52:00.765Z,99727.50
2022-11-19T12:53:39.493Z,99736.41
2022-11-19T12:55:10.534Z,99742.72
2022-11-19T12:56:48.096Z,99730.56
2022-11-19T12:58:20.063Z,99742.25
2022-11-19T13:00:03.749Z,99736.13
2022-11-19T13:01:28.927Z,99729.00
2022-11-19T13:03:09.442Z,99730.66
2022-11-19T13:04:42.696Z,99732.38
2022-11-19T13:06:16.727Z,99728.72
2022-11-19T13:07:55.784Z,99731.25
2022-11-19T13:09:32.162Z,99730.56
2022-11-19T13:11:09.005Z,99731.53
2022-11-19T13:12:39.298Z,99725.53
2022-11-19T13:14:08.278Z,99722.00
2022-11-19T13:15:37.268Z,99722.97
2022-11-19T13:17:01.544Z,99726.63
2022-11-19T13:18:25.934Z,99725.06
2022-11-19T13:19:53.427Z,99730.38
2022-11-19T13:21:22.736Z,99723.66
2022-11-19T13:22:48.914Z,99722.94
2022-11-19T13:24:23.716Z,99719.56
2022-11-19T13:25:52.204Z,99721.66
2022-11-19T13:27:22.949Z,99724.59
2022-11-19T13:28:51.729Z,99724.00
2022-11-19T13:30:21.850Z,99719.94
2022-11-19T13:31:48.969Z,99717.53
2022-11-19T13:33:19.366Z,99723.94
2022-11-19T13:34:49.610Z,99722.38
2022-11-19T13:36:20.086Z,99724.47
2022-11-19T13:37:51.685Z,99720.38
2022-11-19T13:39:27.905Z,99725.94
2022-11-19T13:40:55.672Z,99720.91
2022-11-19T13:42:40.296Z,99720.19
2022-11-19T13:44:24.930Z,99722.41
2022-11-19T13:45:55.556Z,99713.72
2022-11-19T13:47:25.043Z,99717.38
2022-11-19T13:48:56.857Z,99721.13
2022-11-19T13:50:24.087Z,99727.25
2022-11-19T13:52:12.210Z,99722.06
2022-11-19T13:53:40.301Z,99726.66
2022-11-19T13:55:03.037Z,99725.09
2022-11-19T13:56:38.319Z,99733.03
2022-11-19T13:58:13.023Z,99733.31
2022-11-19T13:59:40.966Z,99722.81
2022-11-19T14:01:21.957Z,99719.34
2022-11-19T14:03:18.547Z,99724.06
2022-11-19T14:05:07.052Z,99718.16
2022-11-19T14:06:46.063Z,99716.88
2022-11-19T14:08:36.856Z,99713.78
2022-11-19T14:10:10.626Z,99715.84
2022-11-19T14:12:10.521Z,99712.88
2022-11-19T14:13:47.235Z,99718.41
2022-11-19T14:16:02.656Z,99716.97
2022-11-19T14:17:59.708Z,99722.66
2022-11-19T14:19:47.595Z,99717.72
2022-11-19T14:22:11.426Z,99716.44
2022-11-19T14:24:01.613Z,99713.19
2022-11-19T14:26:01.140Z,99711.75
2022-11-19T14:27:30.803Z,99712.00
2022-11-19T14:28:54.433Z,99716.69
2022-11-19T14:30:20.283Z,99721.28
2022-11-19T14:32:15.803Z,99723.34
2022-11-19T14:34:00.061Z,99718.41
2022-11-19T14:35:45.103Z,99718.66
2022-11-19T14:37:20.729Z,99714.47
2022-11-19T14:38:48.986Z,99720.00
2022-11-19T14:40:27.217Z,99716.63
2022-11-19T14:42:17.652Z,99726.59
2022-11-19T14:44:10.245Z,99719.91
2022-11-19T14:45:38.427Z,99710.41
2022-11-19T14:47:39.954Z,99718.56
2022-11-19T14:49:23.055Z,99712.56
2022-11-19T14:50:45.504Z,99719.06
2022-11-19T14:52:23.212Z,99719.16
2022-11-19T14:53:52.408Z,99719.56
2022-11-19T14:55:23.001Z,99711.00
2022-11-19T14:57:01.670Z,99715.56
2022-11-19T14:58:32.424Z,99721.13
2022-11-19T14:59:59.458Z,99711.63
2022-11-19T15:01:23.884Z,99717.16
2022-11-19T15:02:53.342Z,99710.31
2022-11-19T15:04:20.258Z,99707.88
2022-11-19T15:05:51.069Z,99700.19
2022-11-19T15:07:20.713Z,99707.41
2022-11-19T15:08:57.056Z,99700.69
2022-11-19T15:10:51.618Z,99710.53
2022-11-19T15:15:06.747Z,99697.09
2022-11-19T15:16:40.820Z,99703.44
2022-11-19T15:18:39.867Z,99704.53
2022-11-19T15:20:33.296Z,99704.88
2022-11-19T15:23:02.941Z,99710.41
2022-11-19T15:25:34.450Z,99714.25
2022-11-19T15:27:15.330Z,99702.22
2022-11-19T15:29:08.142Z,99713.84
2022-11-19T15:31:12.884Z,99711.56
2022-11-19T15:33:19.257Z,99713.63
2022-11-19T15:35:10.737Z,99716.50
2022-11-19T15:36:39.813Z,99716.59
2022-11-19T15:38:08.776Z,99715.88
2022-11-19T15:39:39.843Z,99717.78
2022-11-19T15:41:05.175Z,99715.28
2022-11-19T15:42:35.856Z,99710.94
2022-11-19T15:44:09.225Z,99707.47
2022-11-19T15:46:12.085Z,99701.44
2022-11-19T15:47:49.908Z,99706.84
2022-11-19T15:51:38.867Z,99704.44
2022-11-19T15:53:33.891Z,99710.78
2022-11-19T15:55:28.439Z,99699.53
2022-11-19T15:57:07.825Z,99700.47
2022-11-19T16:02:14.355Z,99706.22
2022-11-19T16:04:31.336Z,99710.75
2022-11-19T16:06:32.298Z,99706.66
2022-11-19T16:08:05.474Z,99701.50
2022-11-19T16:09:30.053Z,99706.78
2022-11-19T16:11:20.744Z,99698.97
2022-11-19T16:13:15.548Z,99704.34
2022-11-19T16:15:08.803Z,99697.41
2022-11-19T16:16:51.073Z,99695.59
2022-11-19T16:18:23.741Z,99697.50
2022-11-19T16:19:45.869Z,99700.28
2022-11-19T16:21:08.404Z,99700.28
2022-11-19T16:22:33.022Z,99703.75
2022-11-19T16:24:14.959Z,99703.88
2022-11-19T16:25:41.064Z,99699.66
2022-11-19T16:27:04.311Z,99694.38
2022-11-19T16:28:30.690Z,99706.75
2022-11-19T16:29:53.709Z,99692.81
2022-11-19T16:31:16.441Z,99697.34
2022-11-19T16:32:38.825Z,99689.56
2022-11-19T16:34:01.240Z,99699.28
2022-11-19T16:35:26.456Z,99708.97
2022-11-19T16:36:52.428Z,99695.91
2022-11-19T16:38:19.165Z,99695.91
2022-11-19T16:39:43.517Z,99704.78
2022-11-19T16:41:25.638Z,99703.94
2022-11-19T16:42:54.008Z,99702.25
2022-11-19T16:44:19.760Z,99706.72
2022-11-19T16:45:47.437Z,99710.28
2022-11-19T16:47:18.591Z,99702.50
2022-11-19T16:49:01.530Z,99707.78
2022-11-19T16:50:31.839Z,99707.78
2022-11-19T16:51:54.679Z,99699.97
2022-11-19T16:53:46.744Z,99696.50
2022-11-19T16:55:40.475Z,99704.59
2022-11-19T16:57:07.699Z,99706.41
2022-11-19T16:58:30.181Z,99704.75
2022-11-19T16:59:54.557Z,99709.19
2022-11-19T17:01:34.308Z,99695.13
2022-11-19T17:02:57.512Z,99704.00
2022-11-19T17:04:21.933Z,99704.00
2022-11-19T17:05:50.702Z,99709.19
2022-11-19T17:07:31.459Z,99698.72
2022-11-19T17:08:59.948Z,99704.84
2022-11-19T17:10:37.242Z,99703.16
2022-11-19T17:12:17.344Z,99703.03
2022-11-19T17:13:42.378Z,99703.03
2022-11-19T17:15:34.772Z,99706.66
2022-11-19T17:16:58.961Z,99701.38
2022-11-19T17:18:34.588Z,99700.53
2022-11-19T17:19:58.245Z,99705.91
2022-11-19T17:21:28.096Z,99699.78
2022-11-19T17:22:50.645Z,99706.03
2022-11-19T17:24:14.409Z,99706.97
2022-11-19T17:25:37.425Z,99709.63
2022-11-19T17:27:00.248Z,99698.31
2022-11-19T17:28:38.271Z,99712.47
2022-11-19T17:30:04.261Z,99710.91
2022-11-19T17:31:28.539Z,99718.00
2022-11-19T17:32:58.158Z,99716.19
2022-11-19T17:34:33.278Z,99721.56
2022-11-19T17:35:56.311Z,99718.09
2022-11-19T17:37:22.035Z,99717.34
2022-11-19T17:38:44.680Z,99711.97
2022-11-19T17:40:09.630Z,99710.28
2022-11-19T17:41:53.194Z,99719.06
2022-11-19T17:43:34.806Z,99715.56
2022-11-19T17:44:57.135Z,99712.06
2022-11-19T17:46:21.870Z,99721.78
2022-11-19T17:47:45.452Z,99720.13
2022-11-19T17:49:10.576Z,99721.91
2022-11-19T17:50:41.361Z,99727.31
2022-11-19T17:52:20.383Z,99725.59
2022-11-19T17:53:51.433Z,99722.13
2022-11-19T17:55:43.184Z,99720.31
2022-11-19T17:57:13.396Z,99720.44
2022-11-19T17:58:46.486Z,99724.75
2022-11-19T18:00:18.334Z,99725.72
2022-11-19T18:01:54.330Z,99731.00
2022-11-19T18:05:43.419Z,99728.38
2022-11-19T18:07:12.394Z,99717.81
2022-11-19T18:08:38.255Z,99730.03
2022-11-19T18:10:10.412Z,99732.56
2022-11-19T18:11:33.448Z,99732.69
2022-11-19T18:12:56.049Z,99731.84
2022-11-19T18:14:21.482Z,99727.41
2022-11-19T18:15:43.994Z,99729.19
2022-11-19T18:17:10.934Z,99739.75
2022-11-19T18:18:35.351Z,99731.00
2022-11-19T18:19:57.814Z,99737.94
2022-11-19T18:21:21.692Z,99736.28
2022-11-19T18:22:43.929Z,99728.47
2022-11-19T18:24:05.294Z,99738.19
2022-11-19T18:25:27.548Z,99740.81
2022-11-19T18:26:49.461Z,99733.00